Darstellungsparameter: Aktuell verwendete Einstellungen:
Skalierung der Graphiken ... ?
xyx+y,   Skalierungsfaktor:      Skalierung: Modus: x, Faktor: 1
Darstellungszeitraum ... ?
Vom - - bis: - -   Zeitraum: 04.12.2018 - 04.12.2018
Min/Max/Avg-Anzeige ... ?
Zeige MMA aktuell
Zeige MMA Monat
Zeige MMA alles
Zeige --A aktuell
Zeige --A Monat
Zeige --A alles
Keine MMA-Anzeige
MMA:
Keine MMA-Graphiken
MMA-Basis: 04.12.2018 - 04.12.2018
Quicknavigation für Darstellung... ?
Tage:      1T, 2T, 3T, 5T -1T -2T -3T -5T +1T +2T +3T +5T
Wochen: 1W, 2W, 3W -1W -2W -3W +1W +2W +3W
Monate: 1M, 3M, 6M -1M -3M -6M +1M +3M +6M
Jahre:    1J, 3J, 5J, 10J -1J -3J -5J -10J +1J +3J +5J +10J
Nutze für die Darstellung ... ?
Originaldaten oder Mittelwerte auf ...
Stundenbasis Tagesbasis Wochenbasis
Monatsbasis Jahresbasis      Datenbasis: Original-Daten
Darstellen als:
Statistik (Auto) Statistik J:M      Darstellung:
Zur Graphik,    zurück zur Übersicht aller Sensoren.
 
Tabellarische Datenbersicht: ?
 
Sensor: Nr:Datum:Temp:Abs-Feuchte:Windchill:Wind:
Aussen-T/F 1 04-12-2018 00:00:00 10.7 C 9.23 g/m*3 9.81 C 8.1 km/h
2 04-12-2018 00:05:00 10.7 C 9.23 g/m*3 9.04 C 12.9 km/h
3 04-12-2018 00:10:00 10.7 C 9.23 g/m*3 9.81 C 8.1 km/h
4 04-12-2018 00:15:00 10.8 C 9.29 g/m*3 10.29 C 6.4 km/h
5 04-12-2018 00:20:00 10.8 C 9.29 g/m*3 9.93 C 8.1 km/h
6 04-12-2018 00:25:00 10.8 C 9.29 g/m*3 9.93 C 8.1 km/h
7 04-12-2018 00:30:00 10.8 C 9.29 g/m*3 10.8 C 4.8 km/h
8 04-12-2018 00:35:00 10.8 C 9.29 g/m*3 9.93 C 8.1 km/h
9 04-12-2018 00:40:00 10.8 C 9.29 g/m*3 10.8 C 3.2 km/h
10 04-12-2018 00:45:00 10.8 C 9.29 g/m*3 10.8 C 4.8 km/h
11 04-12-2018 00:50:00 10.8 C 9.29 g/m*3 9.93 C 8.1 km/h
12 04-12-2018 00:55:00 10.8 C 9.29 g/m*3 9.93 C 8.1 km/h
13 04-12-2018 01:00:00 10.7 C 9.23 g/m*3 9.26 C 11.3 km/h
14 04-12-2018 01:05:00 10.7 C 9.23 g/m*3 9.81 C 8.1 km/h
15 04-12-2018 01:10:00 10.7 C 9.23 g/m*3 9.26 C 11.3 km/h
16 04-12-2018 01:15:00 10.7 C 9.13 g/m*3 8.65 C 16.1 km/h
17 04-12-2018 01:20:00 10.7 C 9.13 g/m*3 9.26 C 11.3 km/h
18 04-12-2018 01:25:00 10.7 C 9.13 g/m*3 9.26 C 11.3 km/h
19 04-12-2018 01:30:00 10.7 C 9.13 g/m*3 9.81 C 8.1 km/h
20 04-12-2018 01:35:00 10.6 C 9.08 g/m*3 10.06 C 6.4 km/h
21 04-12-2018 01:40:00 10.5 C 8.92 g/m*3 9.57 C 8.1 km/h
22 04-12-2018 01:45:00 10.4 C 8.87 g/m*3 8.9 C 11.3 km/h
23 04-12-2018 01:50:00 10.3 C 8.81 g/m*3 9.04 C 9.7 km/h
24 04-12-2018 01:55:00 10.3 C 8.81 g/m*3 8.78 C 11.3 km/h
25 04-12-2018 02:00:00 10.3 C 8.71 g/m*3 8.78 C 11.3 km/h
Sensor: Nr:Datum:Temp:Abs-Feuchte:Windchill:Wind:
Aussen-T/F 26 04-12-2018 02:05:00 10.2 C 8.56 g/m*3 10.2 C 4.8 km/h
27 04-12-2018 02:10:00 10.2 C 8.66 g/m*3 8.92 C 9.7 km/h
28 04-12-2018 02:15:00 10.2 C 8.56 g/m*3 8.66 C 11.3 km/h
29 04-12-2018 02:20:00 10.3 C 8.62 g/m*3 9.04 C 9.7 km/h
30 04-12-2018 02:25:00 10.3 C 8.62 g/m*3 8.78 C 11.3 km/h
31 04-12-2018 02:30:00 10.4 C 8.67 g/m*3 9.83 C 6.4 km/h
32 04-12-2018 02:35:00 10.3 C 8.52 g/m*3 9.72 C 6.4 km/h
33 04-12-2018 02:40:00 10.3 C 8.52 g/m*3 9.72 C 6.4 km/h
34 04-12-2018 02:45:00 10.3 C 8.52 g/m*3 9.04 C 9.7 km/h
35 04-12-2018 02:50:00 10.3 C 8.52 g/m*3 9.72 C 6.4 km/h
36 04-12-2018 02:55:00 10.3 C 8.52 g/m*3 10.3 C 4.8 km/h
37 04-12-2018 03:00:00 10.3 C 8.52 g/m*3 10.3 C 4.8 km/h
38 04-12-2018 03:05:00 10.2 C 8.47 g/m*3 8.92 C 9.7 km/h
39 04-12-2018 03:10:00 10.2 C 8.37 g/m*3 7.54 C 20.9 km/h
40 04-12-2018 03:15:00 10.1 C 8.23 g/m*3 7.91 C 16.1 km/h
41 04-12-2018 03:20:00 9.9 C 8.12 g/m*3 7.48 C 17.7 km/h
42 04-12-2018 03:25:00 9.7 C 8.11 g/m*3 7.23 C 17.7 km/h
43 04-12-2018 03:30:00 9.6 C 8.06 g/m*3 7.11 C 17.7 km/h
44 04-12-2018 03:35:00 9.4 C 7.96 g/m*3 7.04 C 16.1 km/h
45 04-12-2018 03:40:00 9.4 C 7.96 g/m*3 7.7 C 11.3 km/h
46 04-12-2018 03:45:00 9.3 C 8 g/m*3 8.16 C 8.1 km/h
47 04-12-2018 03:50:00 9.2 C 7.95 g/m*3 8.05 C 8.1 km/h
48 04-12-2018 03:55:00 9.1 C 7.9 g/m*3 6.87 C 14.5 km/h
49 04-12-2018 04:00:00 9 C 7.85 g/m*3 6.75 C 14.5 km/h
50 04-12-2018 04:05:00 8.9 C 7.8 g/m*3 7.37 C 9.7 km/h
Sensor: Nr:Datum:Temp:Abs-Feuchte:Windchill:Wind:
Aussen-T/F 51 04-12-2018 04:10:00 8.9 C 7.8 g/m*3 7.37 C 9.7 km/h
52 04-12-2018 04:15:00 8.8 C 7.83 g/m*3 7.25 C 9.7 km/h
53 04-12-2018 04:20:00 8.8 C 7.83 g/m*3 6.97 C 11.3 km/h
54 04-12-2018 04:25:00 8.8 C 7.83 g/m*3 6.97 C 11.3 km/h
55 04-12-2018 04:30:00 8.7 C 7.78 g/m*3 7.46 C 8.1 km/h
56 04-12-2018 04:35:00 8.7 C 7.78 g/m*3 6.38 C 14.5 km/h
57 04-12-2018 04:40:00 8.6 C 7.73 g/m*3 7.01 C 9.7 km/h
58 04-12-2018 04:45:00 8.6 C 7.73 g/m*3 6.73 C 11.3 km/h
59 04-12-2018 04:50:00 8.6 C 7.73 g/m*3 6.73 C 11.3 km/h
60 04-12-2018 04:55:00 8.5 C 7.68 g/m*3 6.61 C 11.3 km/h
61 04-12-2018 05:00:00 8.5 C 7.68 g/m*3 6.61 C 11.3 km/h
62 04-12-2018 05:05:00 8.4 C 7.72 g/m*3 7.11 C 8.1 km/h
63 04-12-2018 05:10:00 8.4 C 7.72 g/m*3 7.11 C 8.1 km/h
64 04-12-2018 05:15:00 8.4 C 7.63 g/m*3 6.78 C 9.7 km/h
65 04-12-2018 05:20:00 8.4 C 7.63 g/m*3 6.78 C 9.7 km/h
66 04-12-2018 05:25:00 8.3 C 7.59 g/m*3 7.41 C 6.4 km/h
67 04-12-2018 05:30:00 8.3 C 7.59 g/m*3 6.99 C 8.1 km/h
68 04-12-2018 05:35:00 8.3 C 7.59 g/m*3 6.37 C 11.3 km/h
69 04-12-2018 05:40:00 8.3 C 7.59 g/m*3 6.99 C 8.1 km/h
70 04-12-2018 05:45:00 8.3 C 7.59 g/m*3 8.3 C 4.8 km/h
71 04-12-2018 05:50:00 8.2 C 7.54 g/m*3 7.29 C 6.4 km/h
72 04-12-2018 05:55:00 8.1 C 7.57 g/m*3 8.1 C 4.8 km/h
73 04-12-2018 06:00:00 8.1 C 7.57 g/m*3 8.1 C 1.6 km/h
74 04-12-2018 06:05:00 7.9 C 7.47 g/m*3 7.9 C 1.6 km/h
75 04-12-2018 06:10:00 7.9 C 7.47 g/m*3 7.9 C 1.6 km/h
Sensor: Nr:Datum:Temp:Abs-Feuchte:Windchill:Wind:
Aussen-T/F 76 04-12-2018 06:15:00 7.8 C 7.43 g/m*3 7.8 C 1.6 km/h
77 04-12-2018 06:20:00 7.8 C 7.43 g/m*3 7.8 C 0 km/h
78 04-12-2018 06:25:00 7.7 C 7.46 g/m*3 7.7 C 0 km/h
79 04-12-2018 06:30:00 7.7 C 7.46 g/m*3 7.7 C 1.6 km/h
80 04-12-2018 06:35:00 7.6 C 7.41 g/m*3 7.6 C 0 km/h
81 04-12-2018 06:40:00 7.6 C 7.41 g/m*3 7.6 C 0 km/h
82 04-12-2018 06:45:00 7.6 C 7.41 g/m*3 7.6 C 0 km/h
83 04-12-2018 06:50:00 7.6 C 7.41 g/m*3 7.6 C 0 km/h
84 04-12-2018 06:55:00 7.6 C 7.41 g/m*3 7.6 C 4.8 km/h
85 04-12-2018 07:00:00 7.6 C 7.41 g/m*3 7.6 C 3.2 km/h
86 04-12-2018 07:05:00 7.6 C 7.41 g/m*3 7.6 C 3.2 km/h
87 04-12-2018 07:10:00 7.7 C 7.46 g/m*3 6.28 C 8.1 km/h
88 04-12-2018 07:15:00 7.7 C 7.46 g/m*3 7.7 C 1.6 km/h
89 04-12-2018 07:20:00 7.7 C 7.46 g/m*3 7.7 C 1.6 km/h
90 04-12-2018 07:25:00 7.7 C 7.46 g/m*3 7.7 C 3.2 km/h
91 04-12-2018 07:30:00 7.7 C 7.46 g/m*3 6.71 C 6.4 km/h
92 04-12-2018 07:35:00 7.7 C 7.38 g/m*3 6.71 C 6.4 km/h
93 04-12-2018 07:40:00 7.6 C 7.33 g/m*3 5.82 C 9.7 km/h
94 04-12-2018 07:45:00 7.6 C 7.33 g/m*3 7.6 C 4.8 km/h
95 04-12-2018 07:50:00 7.5 C 7.28 g/m*3 7.5 C 3.2 km/h
96 04-12-2018 07:55:00 7.4 C 7.24 g/m*3 7.4 C 3.2 km/h
97 04-12-2018 08:00:00 7.4 C 7.24 g/m*3 7.4 C 3.2 km/h
98 04-12-2018 08:05:00 7.4 C 7.32 g/m*3 7.4 C 3.2 km/h
99 04-12-2018 08:10:00 7.4 C 7.32 g/m*3 7.4 C 4.8 km/h
100 04-12-2018 08:15:00 7.4 C 7.32 g/m*3 7.4 C 3.2 km/h
Sensor: Nr:Datum:Temp:Abs-Feuchte:Windchill:Wind:
Aussen-T/F 101 04-12-2018 08:20:00 7.3 C 7.27 g/m*3 7.3 C 3.2 km/h
102 04-12-2018 08:25:00 7.3 C 7.27 g/m*3 7.3 C 3.2 km/h
103 04-12-2018 08:30:00 7.2 C 7.22 g/m*3 7.2 C 1.6 km/h
104 04-12-2018 08:35:00 7.2 C 7.22 g/m*3 7.2 C 3.2 km/h
105 04-12-2018 08:40:00 7.1 C 7.18 g/m*3 7.1 C 4.8 km/h
106 04-12-2018 08:45:00 7.1 C 7.18 g/m*3 6.02 C 6.4 km/h
107 04-12-2018 08:50:00 7.1 C 7.18 g/m*3 7.1 C 1.6 km/h
108 04-12-2018 08:55:00 7.1 C 7.1 g/m*3 5.58 C 8.1 km/h
109 04-12-2018 09:00:00 7.1 C 7.1 g/m*3 7.1 C 1.6 km/h
110 04-12-2018 09:05:00 7.1 C 7.1 g/m*3 7.1 C 1.6 km/h
111 04-12-2018 09:10:00 7.1 C 7.1 g/m*3 7.1 C 0 km/h
112 04-12-2018 09:15:00 7.1 C 7.02 g/m*3 7.1 C 0 km/h
113 04-12-2018 09:20:00 7.2 C 7.06 g/m*3 6.13 C 6.4 km/h
114 04-12-2018 09:25:00 7.2 C 7.06 g/m*3 7.2 C 4.8 km/h
115 04-12-2018 09:30:00 7.3 C 7.03 g/m*3 7.3 C 4.8 km/h
116 04-12-2018 09:35:00 7.3 C 7.03 g/m*3 7.3 C 1.6 km/h
117 04-12-2018 09:40:00 7.4 C 7.08 g/m*3 7.4 C 4.8 km/h
118 04-12-2018 09:45:00 7.4 C 7 g/m*3 7.4 C 3.2 km/h
119 04-12-2018 09:50:00 7.5 C 7.12 g/m*3 7.5 C 3.2 km/h
120 04-12-2018 09:55:00 7.6 C 7.17 g/m*3 7.6 C 0 km/h
121 04-12-2018 10:00:00 7.6 C 7.09 g/m*3 7.6 C 0 km/h
122 04-12-2018 10:05:00 7.6 C 7.17 g/m*3 7.6 C 0 km/h
123 04-12-2018 10:10:00 7.6 C 7.09 g/m*3 7.6 C 0 km/h
124 04-12-2018 10:15:00 7.6 C 7.09 g/m*3 7.6 C 1.6 km/h
125 04-12-2018 10:20:00 7.6 C 7.09 g/m*3 7.6 C 3.2 km/h
Sensor: Nr:Datum:Temp:Abs-Feuchte:Windchill:Wind:
Aussen-T/F 126 04-12-2018 10:25:00 7.6 C 7.01 g/m*3 7.6 C 3.2 km/h
127 04-12-2018 10:30:00 7.7 C 7.14 g/m*3 6.71 C 6.4 km/h
128 04-12-2018 10:35:00 7.7 C 7.14 g/m*3 7.7 C 3.2 km/h
129 04-12-2018 10:40:00 7.6 C 7.09 g/m*3 7.6 C 0 km/h
130 04-12-2018 10:45:00 7.6 C 7.09 g/m*3 7.6 C 4.8 km/h
131 04-12-2018 10:50:00 7.5 C 7.04 g/m*3 6.48 C 6.4 km/h
132 04-12-2018 10:55:00 7.4 C 7 g/m*3 5.58 C 9.7 km/h
133 04-12-2018 11:00:00 7.5 C 7.04 g/m*3 6.05 C 8.1 km/h
134 04-12-2018 11:05:00 7.6 C 7.17 g/m*3 6.6 C 6.4 km/h
135 04-12-2018 11:10:00 7.7 C 7.22 g/m*3 6.71 C 6.4 km/h
136 04-12-2018 11:15:00 7.7 C 7.22 g/m*3 7.7 C 3.2 km/h
137 04-12-2018 11:20:00 7.8 C 7.18 g/m*3 6.83 C 6.4 km/h
138 04-12-2018 11:25:00 7.9 C 7.31 g/m*3 6.52 C 8.1 km/h
139 04-12-2018 11:30:00 8.1 C 7.41 g/m*3 6.13 C 11.3 km/h
140 04-12-2018 11:35:00 8.1 C 7.32 g/m*3 8.1 C 4.8 km/h
141 04-12-2018 11:40:00 8.2 C 7.45 g/m*3 8.2 C 4.8 km/h
142 04-12-2018 11:45:00 8.3 C 7.42 g/m*3 6.66 C 9.7 km/h
143 04-12-2018 11:50:00 8.4 C 7.47 g/m*3 8.4 C 4.8 km/h
144 04-12-2018 11:55:00 8.4 C 7.38 g/m*3 7.11 C 8.1 km/h
145 04-12-2018 12:00:00 8.4 C 7.3 g/m*3 6.24 C 12.9 km/h
146 04-12-2018 12:05:00 8.4 C 7.3 g/m*3 7.11 C 8.1 km/h
147 04-12-2018 12:10:00 8.4 C 7.3 g/m*3 6.78 C 9.7 km/h
148 04-12-2018 12:15:00 8.4 C 7.21 g/m*3 7.11 C 8.1 km/h
149 04-12-2018 12:20:00 8.4 C 7.3 g/m*3 6.78 C 9.7 km/h
150 04-12-2018 12:25:00 8.3 C 7.16 g/m*3 6.12 C 12.9 km/h
Sensor: Nr:Datum:Temp:Abs-Feuchte:Windchill:Wind:
Aussen-T/F 151 04-12-2018 12:30:00 8.3 C 7.16 g/m*3 7.41 C 6.4 km/h
152 04-12-2018 12:35:00 8.3 C 7.25 g/m*3 8.3 C 4.8 km/h
153 04-12-2018 12:40:00 8.2 C 7.2 g/m*3 7.29 C 6.4 km/h
154 04-12-2018 12:45:00 8.1 C 7.07 g/m*3 7.17 C 6.4 km/h
155 04-12-2018 12:50:00 8.1 C 7.16 g/m*3 8.1 C 3.2 km/h
156 04-12-2018 12:55:00 8.1 C 7.16 g/m*3 8.1 C 3.2 km/h
157 04-12-2018 13:00:00 8.1 C 7.16 g/m*3 7.17 C 6.4 km/h
158 04-12-2018 13:05:00 8.1 C 7.16 g/m*3 8.1 C 3.2 km/h
159 04-12-2018 13:10:00 8.1 C 7.16 g/m*3 8.1 C 3.2 km/h
160 04-12-2018 13:15:00 8.1 C 7.16 g/m*3 8.1 C 0 km/h
161 04-12-2018 13:20:00 8.1 C 7.16 g/m*3 8.1 C 4.8 km/h
162 04-12-2018 13:25:00 8.1 C 7.16 g/m*3 7.17 C 6.4 km/h
163 04-12-2018 13:30:00 8 C 7.03 g/m*3 8 C 4.8 km/h
164 04-12-2018 13:35:00 8 C 7.03 g/m*3 8 C 1.6 km/h
165 04-12-2018 13:40:00 8 C 7.03 g/m*3 8 C 0 km/h
166 04-12-2018 13:45:00 8.1 C 7.16 g/m*3 8.1 C 0 km/h
167 04-12-2018 13:50:00 8.1 C 7.24 g/m*3 8.1 C 0 km/h
168 04-12-2018 13:55:00 8.1 C 7.24 g/m*3 8.1 C 0 km/h
169 04-12-2018 14:00:00 8 C 7.19 g/m*3 8 C 0 km/h
170 04-12-2018 14:05:00 7.9 C 7.15 g/m*3 7.9 C 0 km/h
171 04-12-2018 14:10:00 7.8 C 7.18 g/m*3 7.8 C 0 km/h
172 04-12-2018 14:15:00 7.7 C 7.14 g/m*3 7.7 C 0 km/h
173 04-12-2018 14:20:00 7.6 C 7.17 g/m*3 7.6 C 0 km/h
174 04-12-2018 14:25:00 7.6 C 7.17 g/m*3 7.6 C 0 km/h
175 04-12-2018 14:30:00 7.6 C 7.25 g/m*3 7.6 C 0 km/h
Sensor: Nr:Datum:Temp:Abs-Feuchte:Windchill:Wind:
Aussen-T/F 176 04-12-2018 14:35:00 7.7 C 7.3 g/m*3 7.7 C 0 km/h
177 04-12-2018 14:40:00 7.8 C 7.35 g/m*3 7.8 C 0 km/h
178 04-12-2018 14:45:00 7.8 C 7.1 g/m*3 6.83 C 6.4 km/h
179 04-12-2018 14:50:00 7.9 C 7.06 g/m*3 7.9 C 4.8 km/h
180 04-12-2018 14:55:00 8.1 C 7.16 g/m*3 8.1 C 4.8 km/h
181 04-12-2018 15:00:00 8.2 C 7.03 g/m*3 6.87 C 8.1 km/h
182 04-12-2018 15:05:00 8.1 C 6.99 g/m*3 7.17 C 6.4 km/h
183 04-12-2018 15:10:00 7.9 C 6.82 g/m*3 6.94 C 6.4 km/h
184 04-12-2018 15:15:00 7.8 C 6.77 g/m*3 7.8 C 3.2 km/h
185 04-12-2018 15:20:00 7.7 C 6.73 g/m*3 7.7 C 1.6 km/h
186 04-12-2018 15:25:00 7.6 C 6.77 g/m*3 7.6 C 4.8 km/h
187 04-12-2018 15:30:00 7.4 C 6.68 g/m*3 7.4 C 3.2 km/h
188 04-12-2018 15:35:00 7.2 C 6.59 g/m*3 7.2 C 4.8 km/h
189 04-12-2018 15:40:00 7.1 C 6.63 g/m*3 7.1 C 0 km/h
190 04-12-2018 15:45:00 6.8 C 6.58 g/m*3 6.8 C 0 km/h
191 04-12-2018 15:50:00 6.6 C 6.49 g/m*3 6.6 C 0 km/h
192 04-12-2018 15:55:00 6.4 C 6.41 g/m*3 6.4 C 1.6 km/h
193 04-12-2018 16:00:00 6.1 C 6.28 g/m*3 6.1 C 0 km/h
194 04-12-2018 16:05:00 5.9 C 6.27 g/m*3 5.9 C 0 km/h
195 04-12-2018 16:10:00 5.7 C 6.19 g/m*3 5.7 C 0 km/h
196 04-12-2018 16:15:00 5.5 C 6.18 g/m*3 5.5 C 0 km/h
197 04-12-2018 16:20:00 5.3 C 6.1 g/m*3 5.3 C 0 km/h
198 04-12-2018 16:25:00 5.1 C 6.09 g/m*3 5.1 C 0 km/h
199 04-12-2018 16:30:00 4.9 C 6.08 g/m*3 4.9 C 0 km/h
200 04-12-2018 16:35:00 4.7 C 6 g/m*3 4.7 C 0 km/h
Sensor: Nr:Datum:Temp:Abs-Feuchte:Windchill:Wind:
Aussen-T/F 201 04-12-2018 16:40:00 4.6 C 5.96 g/m*3 4.6 C 0 km/h
202 04-12-2018 16:45:00 4.4 C 5.88 g/m*3 4.4 C 0 km/h
203 04-12-2018 16:50:00 4.3 C 5.9 g/m*3 4.3 C 0 km/h
204 04-12-2018 16:55:00 4.2 C 5.86 g/m*3 4.2 C 0 km/h
205 04-12-2018 17:00:00 4.1 C 5.89 g/m*3 4.1 C 0 km/h
206 04-12-2018 17:05:00 4 C 5.85 g/m*3 4 C 0 km/h
207 04-12-2018 17:10:00 3.8 C 5.77 g/m*3 3.8 C 0 km/h
208 04-12-2018 17:15:00 3.8 C 5.77 g/m*3 3.8 C 0 km/h
209 04-12-2018 17:20:00 3.7 C 5.73 g/m*3 3.7 C 0 km/h
210 04-12-2018 17:25:00 3.6 C 5.69 g/m*3 3.6 C 0 km/h
211 04-12-2018 17:30:00 3.5 C 5.72 g/m*3 3.5 C 0 km/h
212 04-12-2018 17:35:00 3.4 C 5.68 g/m*3 3.4 C 0 km/h
213 04-12-2018 17:40:00 3.4 C 5.68 g/m*3 3.4 C 0 km/h
214 04-12-2018 17:45:00 3.3 C 5.64 g/m*3 3.3 C 0 km/h
215 04-12-2018 17:50:00 3.3 C 5.64 g/m*3 3.3 C 0 km/h
216 04-12-2018 17:55:00 3.2 C 5.6 g/m*3 3.2 C 0 km/h
217 04-12-2018 18:00:00 3.1 C 5.63 g/m*3 3.1 C 0 km/h
218 04-12-2018 18:05:00 3 C 5.59 g/m*3 3 C 0 km/h
219 04-12-2018 18:10:00 2.9 C 5.55 g/m*3 2.9 C 0 km/h
220 04-12-2018 18:15:00 2.8 C 5.51 g/m*3 2.8 C 0 km/h
221 04-12-2018 18:20:00 2.7 C 5.48 g/m*3 2.7 C 0 km/h
222 04-12-2018 18:25:00 2.7 C 5.48 g/m*3 2.7 C 0 km/h
223 04-12-2018 18:30:00 2.7 C 5.48 g/m*3 2.7 C 0 km/h
224 04-12-2018 18:35:00 2.7 C 5.48 g/m*3 2.7 C 0 km/h
225 04-12-2018 18:40:00 2.6 C 5.44 g/m*3 2.6 C 0 km/h
Sensor: Nr:Datum:Temp:Abs-Feuchte:Windchill:Wind:
Aussen-T/F 226 04-12-2018 18:45:00 2.6 C 5.5 g/m*3 2.6 C 0 km/h
227 04-12-2018 18:50:00 2.7 C 5.54 g/m*3 2.7 C 0 km/h
228 04-12-2018 18:55:00 2.6 C 5.5 g/m*3 2.6 C 0 km/h
229 04-12-2018 19:00:00 2.5 C 5.4 g/m*3 2.5 C 0 km/h
230 04-12-2018 19:05:00 2.4 C 5.42 g/m*3 2.4 C 0 km/h
231 04-12-2018 19:10:00 2.4 C 5.42 g/m*3 2.4 C 0 km/h
232 04-12-2018 19:15:00 2.4 C 5.42 g/m*3 2.4 C 0 km/h
233 04-12-2018 19:20:00 2.3 C 5.39 g/m*3 2.3 C 0 km/h
234 04-12-2018 19:25:00 2.3 C 5.39 g/m*3 2.3 C 0 km/h
235 04-12-2018 19:30:00 2.4 C 5.42 g/m*3 2.4 C 0 km/h
236 04-12-2018 19:35:00 2.4 C 5.42 g/m*3 2.4 C 0 km/h
237 04-12-2018 19:40:00 2.3 C 5.39 g/m*3 2.3 C 0 km/h
238 04-12-2018 19:45:00 2.3 C 5.39 g/m*3 2.3 C 0 km/h
239 04-12-2018 19:50:00 2.3 C 5.39 g/m*3 2.3 C 0 km/h
240 04-12-2018 19:55:00 2.3 C 5.39 g/m*3 2.3 C 0 km/h
241 04-12-2018 20:00:00 2.2 C 5.35 g/m*3 2.2 C 0 km/h
242 04-12-2018 20:05:00 2.2 C 5.35 g/m*3 2.2 C 0 km/h
243 04-12-2018 20:10:00 2.1 C 5.31 g/m*3 2.1 C 0 km/h
244 04-12-2018 20:15:00 2 C 5.28 g/m*3 2 C 0 km/h
245 04-12-2018 20:20:00 1.9 C 5.24 g/m*3 1.9 C 0 km/h
246 04-12-2018 20:25:00 1.9 C 5.24 g/m*3 1.9 C 0 km/h
247 04-12-2018 20:30:00 1.9 C 5.24 g/m*3 1.9 C 0 km/h
248 04-12-2018 20:35:00 1.9 C 5.24 g/m*3 1.9 C 0 km/h
249 04-12-2018 20:40:00 1.9 C 5.24 g/m*3 1.9 C 0 km/h
250 04-12-2018 20:45:00 1.9 C 5.3 g/m*3 1.9 C 0 km/h
Sensor: Nr:Datum:Temp:Abs-Feuchte:Windchill:Wind:
Aussen-T/F 251 04-12-2018 20:50:00 2.1 C 5.37 g/m*3 2.1 C 0 km/h
252 04-12-2018 20:55:00 2.1 C 5.37 g/m*3 2.1 C 0 km/h
253 04-12-2018 21:00:00 2.1 C 5.37 g/m*3 2.1 C 0 km/h
254 04-12-2018 21:05:00 2 C 5.33 g/m*3 2 C 0 km/h
255 04-12-2018 21:10:00 1.8 C 5.21 g/m*3 1.8 C 0 km/h
256 04-12-2018 21:15:00 1.8 C 5.21 g/m*3 1.8 C 0 km/h
257 04-12-2018 21:20:00 1.7 C 5.17 g/m*3 1.7 C 0 km/h
258 04-12-2018 21:25:00 1.5 C 5.1 g/m*3 1.5 C 0 km/h
259 04-12-2018 21:30:00 1.4 C 5.07 g/m*3 1.4 C 0 km/h
260 04-12-2018 21:35:00 1.3 C 5.03 g/m*3 1.3 C 0 km/h
261 04-12-2018 21:40:00 1.3 C 5.03 g/m*3 1.3 C 0 km/h
262 04-12-2018 21:45:00 1.2 C 5 g/m*3 1.2 C 0 km/h
263 04-12-2018 21:50:00 1.2 C 5.05 g/m*3 1.2 C 0 km/h
264 04-12-2018 21:55:00 1.2 C 5.05 g/m*3 1.2 C 0 km/h
265 04-12-2018 22:00:00 1.2 C 5.05 g/m*3 1.2 C 0 km/h
266 04-12-2018 22:05:00 1.3 C 5.09 g/m*3 1.3 C 0 km/h
267 04-12-2018 22:10:00 1.3 C 5.09 g/m*3 1.3 C 1.6 km/h
268 04-12-2018 22:15:00 1.4 C 5.12 g/m*3 1.4 C 0 km/h
269 04-12-2018 22:20:00 1.4 C 5.12 g/m*3 1.4 C 0 km/h
270 04-12-2018 22:25:00 1.4 C 5.12 g/m*3 1.4 C 0 km/h
271 04-12-2018 22:30:00 1.4 C 5.12 g/m*3 1.4 C 0 km/h
272 04-12-2018 22:35:00 1.4 C 5.12 g/m*3 1.4 C 0 km/h
273 04-12-2018 22:40:00 1.5 C 5.16 g/m*3 1.5 C 0 km/h
274 04-12-2018 22:45:00 1.6 C 5.19 g/m*3 1.6 C 0 km/h
275 04-12-2018 22:50:00 1.6 C 5.19 g/m*3 1.6 C 0 km/h
Sensor: Nr:Datum:Temp:Abs-Feuchte:Windchill:Wind:
Aussen-T/F 276 04-12-2018 22:55:00 1.6 C 5.19 g/m*3 1.6 C 0 km/h
277 04-12-2018 23:00:00 1.6 C 5.19 g/m*3 1.6 C 0 km/h
278 04-12-2018 23:05:00 1.6 C 5.19 g/m*3 1.6 C 0 km/h
279 04-12-2018 23:10:00 1.5 C 5.16 g/m*3 1.5 C 0 km/h
280 04-12-2018 23:15:00 1.6 C 5.19 g/m*3 1.6 C 0 km/h
281 04-12-2018 23:20:00 1.6 C 5.19 g/m*3 1.6 C 0 km/h
282 04-12-2018 23:25:00 1.6 C 5.19 g/m*3 1.6 C 0 km/h
283 04-12-2018 23:30:00 1.6 C 5.19 g/m*3 1.6 C 0 km/h
284 04-12-2018 23:35:00 1.6 C 5.19 g/m*3 1.6 C 0 km/h
285 04-12-2018 23:40:00 1.5 C 5.16 g/m*3 1.5 C 0 km/h
286 04-12-2018 23:45:00 1.4 C 5.12 g/m*3 1.4 C 0 km/h
287 04-12-2018 23:50:00 1.4 C 5.12 g/m*3 1.4 C 0 km/h
288 04-12-2018 23:55:00 1.4 C 5.12 g/m*3 1.4 C 0 km/h

Legende:
   Min
   Max


Maximal/Minimal-Werte vom 04.12.2018 - 04.12.2018

Sensor Min Max Avg
Temp
(Aussen-T/F)
1.2 °C
04-12-2018  21:45:00
10.8 °C
04-12-2018  00:15:00
6.49 °C
Abs-Feuchte
(Aussen-T/F)
5 g/m*3
04-12-2018  21:45:00
9.29 g/m*3
04-12-2018  00:15:00
6.88 g/m*3
Windchill
(Aussen-T/F)
1.2 C
04-12-2018  21:45:00
10.8 C
04-12-2018  00:30:00
6 C

Die Daten stammen von einer Davis Vantage Pro 2 Wetter-Station und werden unter Linux mit der Software wview2wettercgi und aufbereitet. Alle Angaben erfolgen ohne Gewähr für ihre Vollständigkeit oder Richtigkeit.
Kontakt: Rainer Krienke krienke@uni-koblenz.de . Meine Webseiten an der Uni Koblenz oder privat.
Version: $Revision: 0.78 $